Time;durP1;ratioP1;P1;durP2;ratioP2;P2;SDS_P1;SDS_P2;PMS_P1;PMS_P2;Temp;Humidity;BMP_temperature;BMP_pressure;BME280_temperature;BME280_humidity;BME280_pressure;Samples;Min_cycle;Max_cycle;Signal;HPM_P1;HPM_P2
2023/10/21 00:01:05;;;;;;;3.13;1.95;;;;;;;20.21;43.35;98445.63;5008052;28;20048;-71
2023/10/21 00:03:31;;;;;;;2.30;1.95;;;;;;;20.18;43.41;98451.41;5057979;28;20048;-70
2023/10/21 00:05:57;;;;;;;3.70;2.33;;;;;;;20.20;43.42;98453.81;5024554;28;20477;-70
2023/10/21 00:08:22;;;;;;;2.28;1.90;;;;;;;20.18;43.38;98454.03;5029958;28;20044;-70
2023/10/21 00:10:48;;;;;;;2.92;2.20;;;;;;;20.16;43.53;98453.47;5028341;28;20045;-71
2023/10/21 00:13:13;;;;;;;2.83;2.25;;;;;;;20.15;43.39;98456.38;5017516;28;20038;-70
2023/10/21 00:15:40;;;;;;;3.47;2.17;;;;;;;20.11;43.43;98452.59;5026918;28;20423;-71
2023/10/21 00:18:05;;;;;;;3.55;2.40;;;;;;;20.15;43.41;98464.28;5025475;28;20435;-71
2023/10/21 00:20:31;;;;;;;2.42;2.08;;;;;;;20.14;43.45;98470.63;5020399;28;20046;-71
2023/10/21 00:22:56;;;;;;;2.83;2.30;;;;;;;20.16;43.39;98473.81;5025401;28;20037;-71
2023/10/21 00:25:23;;;;;;;2.75;2.25;;;;;;;20.11;43.49;98471.09;5016708;28;20034;-71
2023/10/21 00:27:49;;;;;;;2.53;2.25;;;;;;;20.11;43.50;98481.66;5022074;28;20128;-70
2023/10/21 00:30:14;;;;;;;2.50;2.22;;;;;;;20.12;43.53;98475.34;5021415;28;20546;-71
2023/10/21 00:32:40;;;;;;;4.10;2.80;;;;;;;20.11;43.55;98493.03;5019874;28;20041;-70
2023/10/21 00:35:06;;;;;;;2.85;2.42;;;;;;;20.12;43.46;98494.63;5029134;28;20033;-70
2023/10/21 00:37:31;;;;;;;3.13;2.70;;;;;;;20.11;43.49;98487.75;5022351;28;20542;-71
2023/10/21 00:39:57;;;;;;;2.53;2.22;;;;;;;20.07;43.59;98486.59;5014690;28;20041;-71
2023/10/21 00:42:22;;;;;;;7.50;2.80;;;;;;;20.10;43.62;98495.88;5019929;28;20052;-71
2023/10/21 00:44:48;;;;;;;3.42;2.50;;;;;;;20.07;43.60;98493.72;5027156;28;20037;-70
2023/10/21 00:47:13;;;;;;;3.17;2.55;;;;;;;20.08;43.64;98504.06;5032885;28;20434;-71
2023/10/21 00:49:39;;;;;;;3.90;2.60;;;;;;;20.07;43.67;98507.75;5030972;28;20060;-70
2023/10/21 00:52:05;;;;;;;3.75;2.63;;;;;;;20.08;43.61;98504.06;5028878;28;20381;-70
2023/10/21 00:54:30;;;;;;;3.35;2.60;;;;;;;20.08;43.61;98508.53;5027004;28;20193;-70
2023/10/21 00:56:56;;;;;;;3.17;2.65;;;;;;;20.05;43.78;98509.81;5026326;28;20041;-70
2023/10/21 00:59:25;;;;;;;3.60;2.88;;;;;;;20.05;43.65;98512.47;5027704;28;20052;-70
2023/10/21 01:01:51;;;;;;;4.95;2.75;;;;;;;20.08;43.73;98524.38;5028627;28;20649;-70
2023/10/21 01:04:17;;;;;;;3.03;2.58;;;;;;;20.04;43.79;98526.72;5019339;28;20045;-69
2023/10/21 01:06:43;;;;;;;3.25;2.70;;;;;;;20.06;43.76;98537.03;5028127;28;20064;-70
2023/10/21 01:09:10;;;;;;;3.97;2.70;;;;;;;20.06;43.75;98535.19;5023746;28;20125;-70
2023/10/21 01:11:36;;;;;;;3.13;2.58;;;;;;;20.08;43.66;98527.84;5024197;28;20128;-71
2023/10/21 01:14:03;;;;;;;2.75;2.40;;;;;;;20.07;43.61;98536.81;5013365;28;20042;-70
2023/10/21 01:16:29;;;;;;;3.40;2.78;;;;;;;19.94;43.85;98510.69;5030541;28;20036;-70
2023/10/21 01:18:54;;;;;;;3.28;2.47;;;;;;;20.08;43.67;98535.75;5027802;28;20037;-70
2023/10/21 01:21:20;;;;;;;3.15;2.80;;;;;;;20.07;43.94;98538.63;5029123;28;20405;-70
2023/10/21 01:23:46;;;;;;;2.75;2.50;;;;;;;20.02;43.72;98534.06;5027556;28;20053;-69
2023/10/21 01:26:11;;;;;;;3.40;2.83;;;;;;;19.97;43.74;98523.41;5023720;28;20060;-70
2023/10/21 01:28:37;;;;;;;3.88;2.72;;;;;;;20.12;43.72;98544.03;5028277;28;20029;-70
2023/10/21 01:31:03;;;;;;;3.65;2.88;;;;;;;20.14;43.64;98549.88;5024601;28;20589;-70
2023/10/21 01:33:29;;;;;;;3.38;2.72;;;;;;;20.28;43.45;98551.19;5028453;28;20048;-70
2023/10/21 01:35:54;;;;;;;3.28;2.63;;;;;;;20.31;43.29;98557.84;5021450;28;20049;-70
2023/10/21 01:38:20;;;;;;;3.10;2.80;;;;;;;20.30;43.20;98538.56;5019541;28;20042;-71
2023/10/21 01:40:49;;;;;;;3.22;2.42;;;;;;;20.33;43.43;98550.50;5020919;28;20056;-70
2023/10/21 01:43:15;;;;;;;3.38;2.75;;;;;;;20.34;43.55;98555.53;5023649;28;20606;-70
2023/10/21 01:45:40;;;;;;;3.17;2.50;;;;;;;20.33;43.37;98558.41;5025526;28;20072;-70
2023/10/21 01:48:08;;;;;;;3.28;2.60;;;;;;;20.25;43.45;98548.22;5013964;28;20038;-70
2023/10/21 01:50:34;;;;;;;3.75;2.95;;;;;;;20.31;43.61;98568.44;5030871;28;20048;-70
2023/10/21 01:52:59;;;;;;;3.92;3.10;;;;;;;20.25;43.48;98564.06;5023534;28;20038;-70
2023/10/21 01:55:25;;;;;;;4.28;2.90;;;;;;;20.25;43.69;98572.81;5019348;28;20048;-69
2023/10/21 01:57:51;;;;;;;4.20;2.88;;;;;;;20.19;43.66;98565.81;5013195;28;20057;-70
2023/10/21 02:00:20;;;;;;;3.53;2.90;;;;;;;20.26;43.64;98573.59;5021716;28;20041;-70
2023/10/21 02:02:54;;;;;;;4.07;2.92;;;;;;;20.22;43.59;98573.28;5024280;28;20411;-70
2023/10/21 02:05:21;;;;;;;3.53;3.13;;;;;;;20.25;43.69;98582.56;5026640;28;20095;-69
2023/10/21 02:07:47;;;;;;;3.40;2.72;;;;;;;20.20;43.73;98578.81;5029833;28;20068;-70
2023/10/21 02:10:13;;;;;;;3.60;2.70;;;;;;;20.25;43.68;98585.22;5024961;28;20045;-70
2023/10/21 02:12:39;;;;;;;3.60;2.83;;;;;;;20.23;43.63;98583.59;5023142;28;20037;-70
2023/10/21 02:15:17;;;;;;;2.78;2.50;;;;;;;20.22;43.64;98594.41;5028127;28;20505;-70
2023/10/21 02:17:46;;;;;;;3.70;2.80;;;;;;;20.20;43.68;98594.66;5025972;28;20109;-69
2023/10/21 02:20:13;;;;;;;4.63;2.92;;;;;;;20.15;43.68;98589.28;5014749;28;20927;-70
2023/10/21 02:22:38;;;;;;;3.60;2.88;;;;;;;20.18;43.82;98602.03;5021901;28;20028;-69
2023/10/21 02:25:04;;;;;;;3.47;2.85;;;;;;;20.18;43.77;98593.28;5026635;28;20033;-69
2023/10/21 02:27:30;;;;;;;6.05;3.03;;;;;;;20.17;43.82;98603.06;5024649;28;20041;-70
2023/10/21 02:29:55;;;;;;;3.80;3.05;;;;;;;20.17;43.73;98605.69;5018859;28;20041;-70
2023/10/21 02:32:21;;;;;;;3.78;2.80;;;;;;;20.17;43.85;98612.81;5018992;28;20045;-70
2023/10/21 02:34:46;;;;;;;3.33;2.70;;;;;;;20.18;43.72;98615.22;5029031;28;20036;-70
2023/10/21 02:37:12;;;;;;;3.58;2.83;;;;;;;20.15;43.89;98623.63;5010547;28;20145;-70
2023/10/21 02:39:38;;;;;;;3.15;2.70;;;;;;;20.12;43.77;98620.66;5023442;28;20037;-70
2023/10/21 02:42:04;;;;;;;3.83;3.03;;;;;;;20.15;43.79;98630.75;5021684;28;20119;-70
2023/10/21 02:44:30;;;;;;;3.55;2.90;;;;;;;20.12;43.94;98639.97;5015982;28;20622;-70
2023/10/21 02:46:55;;;;;;;3.25;2.45;;;;;;;20.12;43.84;98639.97;5021662;28;20041;-70
2023/10/21 02:49:21;;;;;;;3.88;3.05;;;;;;;20.11;43.97;98642.84;5013249;28;20083;-70
2023/10/21 02:51:47;;;;;;;4.07;3.10;;;;;;;20.12;43.86;98639.16;5019940;28;20412;-70
2023/10/21 02:54:13;;;;;;;4.22;2.95;;;;;;;20.09;43.93;98644.88;5025288;28;20086;-70
2023/10/21 02:56:41;;;;;;;4.80;2.90;;;;;;;20.08;44.04;98653.84;5019931;28;20480;-70
2023/10/21 02:59:07;;;;;;;5.10;3.25;;;;;;;20.10;43.93;98651.78;5026230;28;20153;-70
2023/10/21 03:01:33;;;;;;;3.50;3.15;;;;;;;20.07;43.95;98652.25;5017078;28;20066;-70
2023/10/21 03:03:58;;;;;;;4.28;2.67;;;;;;;20.08;43.86;98662.56;5027654;28;20045;-70
2023/10/21 03:06:24;;;;;;;3.60;2.90;;;;;;;20.07;44.03;98666.25;5029886;28;20053;-70
2023/10/21 03:08:49;;;;;;;3.50;3.00;;;;;;;20.07;43.88;98666.25;5026694;28;20041;-70
2023/10/21 03:11:15;;;;;;;3.45;2.80;;;;;;;20.05;44.09;98664.88;5019864;28;20120;-69
2023/10/21 03:13:41;;;;;;;3.20;2.70;;;;;;;20.01;44.03;98666.41;5024217;28;20073;-70
2023/10/21 03:16:14;;;;;;;4.60;3.08;;;;;;;20.02;44.09;98673.28;5025846;28;20033;-69
2023/10/21 03:18:45;;;;;;;3.88;3.17;;;;;;;20.04;43.94;98671.22;5053816;28;20036;-70
2023/10/21 03:21:13;;;;;;;4.10;2.90;;;;;;;20.03;44.07;98680.19;5020676;28;20087;-70
2023/10/21 03:23:39;;;;;;;3.80;2.97;;;;;;;20.00;44.01;98678.00;5025715;28;20626;-70
2023/10/21 03:26:06;;;;;;;3.95;2.72;;;;;;;20.05;44.09;98678.09;5031565;28;20068;-70
2023/10/21 03:28:32;;;;;;;4.85;3.25;;;;;;;20.03;44.06;98683.63;5026474;28;20045;-70
2023/10/21 03:31:00;;;;;;;4.40;3.10;;;;;;;20.02;44.10;98689.94;5055223;28;20044;-69
2023/10/21 03:33:27;;;;;;;3.78;2.95;;;;;;;19.97;44.07;98681.91;5030585;28;20135;-70
2023/10/21 03:35:54;;;;;;;4.05;3.10;;;;;;;20.00;44.02;98692.00;5029568;28;20043;-70
2023/10/21 03:38:21;;;;;;;3.75;2.90;;;;;;;19.92;44.14;98687.88;5028142;28;20486;-70
2023/10/21 03:41:04;;;;;;;3.10;2.80;;;;;;;20.00;44.10;98699.13;5025092;28;20068;-70
2023/10/21 03:43:30;;;;;;;3.70;2.80;;;;;;;20.02;44.06;98700.50;5025575;28;20033;-69
2023/10/21 03:45:56;;;;;;;4.20;3.10;;;;;;;20.05;43.99;98709.81;5026870;28;20037;-70
2023/10/21 03:48:23;;;;;;;4.47;3.10;;;;;;;20.05;44.07;98709.81;5026350;28;20418;-69
2023/10/21 03:50:49;;;;;;;4.10;3.05;;;;;;;19.99;44.09;98700.16;5025564;28;20578;-70
2023/10/21 03:53:15;;;;;;;4.82;2.90;;;;;;;20.05;44.10;98715.88;5022053;28;20037;-70
2023/10/21 03:55:42;;;;;;;3.30;2.70;;;;;;;20.06;43.96;98717.50;5017612;28;20128;-70
2023/10/21 03:58:07;;;;;;;4.45;3.28;;;;;;;20.01;44.03;98714.75;5023220;28;20043;-70
2023/10/21 04:00:34;;;;;;;3.90;2.90;;;;;;;19.98;44.08;98720.50;5019943;28;20033;-69
2023/10/21 04:03:00;;;;;;;4.75;3.35;;;;;;;20.04;44.08;98724.84;5018799;28;20042;-70
2023/10/21 04:05:25;;;;;;;4.40;3.22;;;;;;;19.94;44.01;98705.34;5024602;28;20054;-69
2023/10/21 04:07:51;;;;;;;3.80;3.17;;;;;;;19.93;44.16;98701.91;5029197;28;20068;-70
2023/10/21 04:10:16;;;;;;;3.88;3.15;;;;;;;20.07;44.04;98734.94;5024736;28;20574;-70
2023/10/21 04:12:42;;;;;;;4.50;3.38;;;;;;;20.08;44.12;98735.75;5024902;28;20729;-70
2023/10/21 04:15:08;;;;;;;5.03;3.47;;;;;;;20.06;44.11;98738.63;5028664;28;20053;-70
2023/10/21 04:17:34;;;;;;;3.72;3.00;;;;;;;20.05;44.15;98752.06;5021433;28;20396;-70
2023/10/21 04:20:00;;;;;;;5.00;2.90;;;;;;;19.97;44.05;98726.81;5030736;28;20040;-69
2023/10/21 04:22:25;;;;;;;3.55;2.88;;;;;;;20.06;44.15;98751.03;5025367;28;20041;-70
2023/10/21 04:24:51;;;;;;;4.68;3.00;;;;;;;20.07;44.04;98750.00;5032450;28;20044;-70
2023/10/21 04:27:16;;;;;;;3.92;2.85;;;;;;;20.05;44.04;98752.06;5026256;28;20029;-70
2023/10/21 04:29:42;;;;;;;4.03;3.08;;;;;;;20.06;44.16;98758.97;5024965;28;20048;-69
2023/10/21 04:32:07;;;;;;;3.80;3.03;;;;;;;20.04;44.19;98759.19;5031196;28;20955;-69
2023/10/21 04:34:33;;;;;;;3.58;2.75;;;;;;;20.05;44.10;98755.53;5030771;28;20041;-69
2023/10/21 04:36:58;;;;;;;3.47;2.70;;;;;;;20.09;44.08;98772.50;5027801;28;20064;-69
2023/10/21 04:39:24;;;;;;;3.33;2.90;;;;;;;20.08;44.13;98770.91;5025028;28;20048;-70
2023/10/21 04:41:50;;;;;;;4.28;2.70;;;;;;;19.99;44.11;98760.94;5021652;28;20536;-70
2023/10/21 04:44:15;;;;;;;3.35;2.92;;;;;;;20.06;44.14;98772.97;5024812;28;20045;-70
2023/10/21 04:46:41;;;;;;;3.40;2.83;;;;;;;20.07;44.18;98771.94;5026320;28;20045;-71
2023/10/21 04:49:06;;;;;;;4.10;3.00;;;;;;;20.06;44.22;98775.63;5026982;28;20045;-70
2023/10/21 04:51:32;;;;;;;4.28;3.13;;;;;;;20.06;44.26;98778.25;5031308;28;20049;-70
2023/10/21 04:53:57;;;;;;;3.75;2.85;;;;;;;20.01;44.13;98766.78;5026849;28;20034;-70
2023/10/21 04:56:26;;;;;;;3.50;2.92;;;;;;;20.08;44.21;98788.59;5024332;28;20393;-70
2023/10/21 04:58:51;;;;;;;3.92;2.90;;;;;;;20.06;44.09;98796.75;5022169;28;20040;-70
2023/10/21 05:01:17;;;;;;;3.50;2.83;;;;;;;20.04;44.21;98798.81;5026771;28;20041;-70
2023/10/21 05:03:43;;;;;;;3.08;2.75;;;;;;;20.06;44.14;98802.03;5025039;28;20037;-70
2023/10/21 05:06:10;;;;;;;3.70;2.92;;;;;;;19.98;44.17;98794.47;5026119;28;20055;-70
2023/10/21 05:08:35;;;;;;;6.65;3.20;;;;;;;20.05;44.27;98807.56;5028440;28;20434;-70
2023/10/21 05:11:01;;;;;;;2.88;2.63;;;;;;;20.00;44.38;98802.97;5028622;28;20033;-69
2023/10/21 05:13:27;;;;;;;4.03;2.65;;;;;;;20.03;44.15;98807.78;5028344;28;20061;-70
2023/10/21 05:15:52;;;;;;;5.00;2.80;;;;;;;20.05;44.28;98816.28;5025829;28;20064;-70
2023/10/21 05:18:18;;;;;;;3.60;2.75;;;;;;;20.00;44.27;98818.81;5022107;28;20033;-70
2023/10/21 05:20:44;;;;;;;3.08;2.78;;;;;;;20.04;44.26;98827.09;5027302;28;20514;-69
2023/10/21 05:23:10;;;;;;;3.38;2.67;;;;;;;20.00;44.17;98825.94;5026364;28;20050;-70
2023/10/21 05:25:36;;;;;;;4.57;3.00;;;;;;;19.92;44.25;98814.66;5021903;28;20046;-70
2023/10/21 05:28:01;;;;;;;3.88;2.85;;;;;;;20.07;44.19;98829.25;5031345;28;20033;-70
2023/10/21 05:30:27;;;;;;;3.40;2.80;;;;;;;20.06;44.20;98825.03;5030131;28;20048;-70
2023/10/21 05:32:52;;;;;;;4.07;2.88;;;;;;;20.13;44.21;98838.94;5029882;28;20053;-70
2023/10/21 05:35:18;;;;;;;3.40;2.75;;;;;;;20.08;44.13;98833.50;5020715;28;20030;-70
2023/10/21 05:37:43;;;;;;;3.80;3.20;;;;;;;20.12;44.23;98846.06;5035829;28;20395;-70
2023/10/21 05:40:10;;;;;;;3.22;2.80;;;;;;;20.05;44.21;98826.84;5027180;28;20029;-70
2023/10/21 05:42:35;;;;;;;3.80;2.80;;;;;;;20.08;44.19;98833.50;5025496;28;20033;-70
2023/10/21 05:45:01;;;;;;;4.03;2.88;;;;;;;20.09;44.33;98841.22;5029547;28;21080;-70
2023/10/21 05:47:26;;;;;;;3.22;2.63;;;;;;;20.11;44.24;98847.09;5024819;28;20049;-70
2023/10/21 05:49:53;;;;;;;3.47;2.72;;;;;;;20.10;44.20;98860.50;5027291;28;20032;-70
2023/10/21 05:52:18;;;;;;;3.75;2.83;;;;;;;20.12;44.17;98866.41;5028768;28;20037;-70
2023/10/21 05:54:44;;;;;;;4.40;3.10;;;;;;;20.08;44.33;98871.31;5025021;28;20083;-70
2023/10/21 05:57:09;;;;;;;4.03;2.97;;;;;;;20.10;44.24;98871.09;5022036;28;20483;-70
2023/10/21 05:59:35;;;;;;;5.07;3.00;;;;;;;20.11;44.33;98875.38;5025550;28;20053;-70
2023/10/21 06:02:01;;;;;;;5.50;3.17;;;;;;;20.05;44.36;98876.25;5026112;28;20041;-71
2023/10/21 06:04:27;;;;;;;3.63;2.72;;;;;;;20.08;44.18;98884.53;5025544;28;20117;-70
2023/10/21 06:06:54;;;;;;;4.20;2.90;;;;;;;20.08;44.37;98889.00;5026160;28;20207;-70
2023/10/21 06:09:25;;;;;;;3.85;2.95;;;;;;;20.09;44.32;98896.69;5019151;28;20068;-70
2023/10/21 06:11:51;;;;;;;4.43;3.10;;;;;;;20.09;44.30;98904.63;5030430;28;20505;-70
2023/10/21 06:14:20;;;;;;;4.20;2.65;;;;;;;20.12;44.26;98914.78;5019764;28;20044;-70
2023/10/21 06:16:46;;;;;;;3.53;2.65;;;;;;;20.23;44.10;98913.16;5031101;28;20717;-70
2023/10/21 06:19:12;;;;;;;3.10;2.72;;;;;;;20.60;43.47;98924.34;5026307;28;20031;-70
2023/10/21 06:21:38;;;;;;;3.60;2.90;;;;;;;21.34;42.50;98914.81;5029869;28;20044;-70
2023/10/21 06:24:04;;;;;;;3.97;2.78;;;;;;;22.09;40.77;98921.78;5023708;28;20045;-70
2023/10/21 06:26:33;;;;;;;3.75;2.80;;;;;;;22.38;40.36;98919.03;5025857;28;20069;-70
2023/10/21 06:28:59;;;;;;;2.92;2.63;;;;;;;22.47;40.11;98930.84;5029253;28;20036;-70
2023/10/21 06:31:26;;;;;;;4.03;2.80;;;;;;;22.28;40.67;98940.91;5024812;28;20515;-70
2023/10/21 06:33:53;;;;;;;3.35;3.03;;;;;;;22.14;40.69;98942.25;5017793;28;20049;-70
2023/10/21 06:36:19;;;;;;;2.60;2.38;;;;;;;21.90;41.36;98938.88;5034988;28;20037;-70
2023/10/21 06:38:44;;;;;;;4.07;2.60;;;;;;;21.78;41.89;98954.84;5018135;28;20103;-70
2023/10/21 06:41:10;;;;;;;4.38;3.08;;;;;;;21.58;42.17;98960.59;5022962;28;20443;-70
2023/10/21 06:43:37;;;;;;;3.38;2.78;;;;;;;21.37;42.32;98950.63;5022815;28;20041;-70
2023/10/21 06:46:02;;;;;;;5.40;2.72;;;;;;;21.25;42.44;98955.97;5023995;28;20050;-70
2023/10/21 06:48:29;;;;;;;2.63;2.33;;;;;;;21.14;43.11;98962.03;5028373;28;20056;-70
2023/10/21 06:50:55;;;;;;;3.35;2.50;;;;;;;21.05;43.03;98958.16;5026818;28;20076;-70
2023/10/21 06:53:21;;;;;;;3.05;2.45;;;;;;;21.06;43.41;98970.34;5028765;28;20487;-70
2023/10/21 06:55:47;;;;;;;3.30;3.00;;;;;;;21.01;43.34;98976.34;5024859;28;20032;-70
2023/10/21 06:58:12;;;;;;;3.85;2.58;;;;;;;20.94;43.41;98966.91;5022647;28;20037;-70
2023/10/21 07:00:38;;;;;;;3.42;2.55;;;;;;;20.97;43.44;98980.47;5025792;28;20411;-70
2023/10/21 07:03:05;;;;;;;3.38;2.58;;;;;;;20.94;43.46;98983.56;5022532;28;20060;-70
2023/10/21 07:05:31;;;;;;;3.28;2.28;;;;;;;20.85;43.75;98979.69;5051220;28;20119;-70
2023/10/21 07:07:56;;;;;;;2.80;2.40;;;;;;;20.91;43.63;98991.19;5029670;28;20557;-71
2023/10/21 07:10:23;;;;;;;2.83;2.30;;;;;;;20.87;43.71;98993.47;5027633;28;20036;-70
2023/10/21 07:12:51;;;;;;;3.42;2.40;;;;;;;20.86;43.80;98999.00;5023712;28;20052;-70
2023/10/21 07:15:17;;;;;;;4.22;2.25;;;;;;;20.76;43.75;99000.38;5037647;28;20049;-70
2023/10/21 07:17:42;;;;;;;2.80;2.42;;;;;;;20.79;43.80;99012.31;5022418;28;20048;-70
2023/10/21 07:20:08;;;;;;;3.17;2.70;;;;;;;20.70;43.96;99014.53;5024073;28;20052;-70
2023/10/21 07:22:34;;;;;;;2.47;2.15;;;;;;;20.75;43.91;99019.13;5021820;28;20037;-70
2023/10/21 07:25:00;;;;;;;2.92;2.40;;;;;;;20.71;44.01;99032.00;5024255;28;20038;-70
2023/10/21 07:27:26;;;;;;;3.67;2.70;;;;;;;20.69;44.13;99030.63;5020737;28;20050;-69
2023/10/21 07:29:51;;;;;;;3.88;2.30;;;;;;;20.66;44.13;99031.88;5021165;28;20741;-70
2023/10/21 07:32:17;;;;;;;3.20;2.33;;;;;;;20.62;44.08;99033.34;5030153;28;20043;-70
2023/10/21 07:34:43;;;;;;;4.85;2.85;;;;;;;20.61;44.07;99034.38;5019169;28;20565;-69
2023/10/21 07:37:08;;;;;;;2.78;2.28;;;;;;;20.58;44.30;99036.69;5024695;28;20040;-70
2023/10/21 07:39:34;;;;;;;2.92;2.35;;;;;;;20.57;44.40;99050.94;5017957;28;20045;-70
2023/10/21 07:41:59;;;;;;;4.10;2.55;;;;;;;20.54;44.41;99048.75;5025483;28;20102;-70
2023/10/21 07:44:26;;;;;;;3.42;2.47;;;;;;;20.54;44.29;99048.75;5015069;28;20034;-70
2023/10/21 07:46:52;;;;;;;3.05;2.28;;;;;;;20.47;44.39;99051.50;5019361;28;20050;-69
2023/10/21 07:49:18;;;;;;;3.15;2.80;;;;;;;20.49;44.40;99058.19;5027464;28;20041;-70
2023/10/21 07:51:43;;;;;;;3.40;2.65;;;;;;;20.49;44.40;99060.81;5032406;28;20041;-69
2023/10/21 07:54:09;;;;;;;3.35;2.40;;;;;;;20.46;44.61;99061.25;5017765;28;20038;-69
2023/10/21 07:56:34;;;;;;;2.60;2.40;;;;;;;20.46;44.42;99057.81;5029882;28;20107;-70
2023/10/21 07:59:00;;;;;;;2.75;2.22;;;;;;;20.45;44.63;99061.47;5023668;28;20037;-69
2023/10/21 08:01:26;;;;;;;2.38;2.17;;;;;;;20.52;44.36;99060.38;5027234;28;20080;-70
2023/10/21 08:03:51;;;;;;;3.47;2.47;;;;;;;20.65;44.13;99069.16;5026439;28;20044;-70
2023/10/21 08:06:17;;;;;;;3.47;2.42;;;;;;;20.81;43.90;99071.09;5024652;28;20103;-70
2023/10/21 08:08:42;;;;;;;3.00;2.22;;;;;;;21.01;43.50;99079.53;5031590;28;20057;-69
2023/10/21 08:11:09;;;;;;;2.40;2.20;;;;;;;21.09;43.30;99079.19;5024902;28;20034;-69
2023/10/21 08:13:35;;;;;;;3.20;2.60;;;;;;;21.10;43.40;99082.63;5027397;28;20373;-68
2023/10/21 08:16:00;;;;;;;3.67;2.58;;;;;;;21.03;43.55;99085.41;5031522;28;20098;-68
2023/10/21 08:18:26;;;;;;;2.95;2.53;;;;;;;21.03;43.72;99089.91;5024641;28;20040;-69
2023/10/21 08:20:52;;;;;;;3.45;2.30;;;;;;;20.98;43.70;99084.47;5023993;28;20052;-68
2023/10/21 08:23:17;;;;;;;3.08;2.60;;;;;;;20.85;43.85;99074.94;5030594;28;20068;-68
2023/10/21 08:25:43;;;;;;;3.38;2.53;;;;;;;20.98;43.63;99100.34;5025603;28;20037;-68
2023/10/21 08:28:10;;;;;;;3.30;2.30;;;;;;;20.97;43.91;99090.78;5031985;28;20030;-68
2023/10/21 08:30:38;;;;;;;3.95;2.58;;;;;;;20.92;43.76;99095.97;5022690;28;20029;-68
2023/10/21 08:33:07;;;;;;;8.02;2.10;;;;;;;20.93;43.83;99097.59;5028263;28;20139;-68
2023/10/21 08:35:34;;;;;;;4.53;2.20;;;;;;;20.93;43.77;99100.22;5026911;28;20088;-68
2023/10/21 08:37:59;;;;;;;3.10;2.10;;;;;;;20.88;43.92;99106.22;5026499;28;20047;-68
2023/10/21 08:40:25;;;;;;;2.83;2.33;;;;;;;20.90;43.88;99109.44;5066350;28;20048;-68
2023/10/21 08:42:51;;;;;;;3.05;2.42;;;;;;;20.85;43.98;99106.66;5026478;28;20034;-68
2023/10/21 08:45:19;;;;;;;3.00;2.55;;;;;;;20.85;44.14;99111.16;5023434;28;20036;-68
2023/10/21 08:47:45;;;;;;;4.55;2.50;;;;;;;20.84;44.17;99109.53;5028970;28;20051;-68
2023/10/21 08:50:13;;;;;;;2.63;2.30;;;;;;;20.84;44.16;99113.00;5029224;28;20044;-68
2023/10/21 08:52:40;;;;;;;2.95;2.20;;;;;;;20.83;44.10;99107.94;5030329;28;20128;-68
2023/10/21 08:55:06;;;;;;;2.53;2.05;;;;;;;20.86;44.24;99126.81;5022612;28;20618;-68
2023/10/21 08:57:33;;;;;;;2.97;2.42;;;;;;;20.84;44.52;99126.22;5030102;28;20069;-69
2023/10/21 08:59:59;;;;;;;2.67;2.40;;;;;;;20.83;44.62;99135.19;5022004;28;20057;-69
2023/10/21 09:02:25;;;;;;;2.83;2.17;;;;;;;20.87;44.49;99139.00;5029574;28;20040;-69
2023/10/21 09:04:51;;;;;;;3.40;2.40;;;;;;;20.80;44.50;99130.34;5019349;28;20454;-69
2023/10/21 09:07:16;;;;;;;3.67;2.35;;;;;;;20.76;44.43;99124.69;5026508;28;20049;-69
2023/10/21 09:09:42;;;;;;;3.83;2.58;;;;;;;20.88;44.35;99150.38;5023488;28;20033;-67
2023/10/21 09:12:11;;;;;;;2.47;2.20;;;;;;;20.87;44.45;99157.50;5027039;28;20543;-68
2023/10/21 09:14:56;;;;;;;3.15;2.33;;;;;;;20.84;44.70;99160.63;5029498;28;20045;-67
2023/10/21 09:17:35;;;;;;;3.00;2.40;;;;;;;20.70;44.63;99124.81;5026117;28;20591;-68
2023/10/21 09:20:11;;;;;;;3.70;2.40;;;;;;;20.81;44.77;99145.16;5025247;28;20486;-68
2023/10/21 09:22:38;;;;;;;3.53;2.60;;;;;;;20.86;44.90;99163.03;5027657;28;20041;-67
2023/10/21 09:25:09;;;;;;;4.65;2.08;;;;;;;20.92;44.50;99164.75;5022121;28;20041;-68
2023/10/21 09:27:35;;;;;;;4.63;2.13;;;;;;;20.94;44.49;99165.34;5024862;28;20096;-67
2023/10/21 09:30:01;;;;;;;4.25;2.45;;;;;;;20.94;44.53;99173.28;5027553;28;20037;-67
2023/10/21 09:32:29;;;;;;;3.45;2.40;;;;;;;20.94;44.60;99171.44;5026510;28;20041;-68
2023/10/21 09:35:16;;;;;;;3.42;2.40;;;;;;;20.94;45.06;99182.03;5020220;28;20566;-68
2023/10/21 09:37:43;;;;;;;3.00;2.17;;;;;;;20.91;44.98;99181.69;5026136;28;20391;-68
2023/10/21 09:40:09;;;;;;;4.15;2.28;;;;;;;20.92;45.04;99186.75;5015356;28;20051;-67
2023/10/21 09:42:41;;;;;;;2.38;2.10;;;;;;;20.89;45.27;99184.56;5021062;28;20087;-67
2023/10/21 09:45:09;;;;;;;3.75;2.28;;;;;;;20.94;45.37;99194.44;5023600;28;20061;-67
2023/10/21 09:47:38;;;;;;;3.17;2.67;;;;;;;20.94;45.76;99197.91;5026807;28;20041;-66
2023/10/21 09:50:11;;;;;;;4.32;2.30;;;;;;;20.93;45.81;99200.78;5024606;28;20079;-66
2023/10/21 09:52:51;;;;;;;4.97;2.42;;;;;;;20.89;45.97;99194.31;5024869;28;20041;-67
2023/10/21 09:55:24;;;;;;;;;;;;;;;20.93;46.23;99206.88;5018709;28;20041;-66
2023/10/21 09:57:52;;;;;;;5.25;2.63;;;;;;;20.91;46.12;99198.34;5022347;28;20358;-66
2023/10/21 10:00:19;;;;;;;4.75;2.63;;;;;;;20.92;45.96;99209.75;5027114;28;21216;-66
2023/10/21 10:02:48;;;;;;;3.50;2.50;;;;;;;20.86;45.49;99202.72;5030186;28;20844;-67
2023/10/21 10:05:17;;;;;;;2.92;2.53;;;;;;;21.06;45.33;99214.63;5019205;28;20374;-66
2023/10/21 10:07:45;;;;;;;3.00;2.40;;;;;;;21.18;44.93;99222.56;5027769;28;20052;-66
2023/10/21 10:10:13;;;;;;;7.55;2.38;;;;;;;21.15;44.89;99209.78;5027225;28;20134;-67
2023/10/21 10:12:59;;;;;;;4.10;2.67;;;;;;;21.21;45.04;99234.56;5017528;28;20072;-66
2023/10/21 10:15:33;;;;;;;3.22;2.10;;;;;;;21.19;45.57;99223.41;5031133;28;20041;-66
2023/10/21 10:18:19;;;;;;;2.90;2.22;;;;;;;21.15;45.57;99223.03;5023816;28;20593;-66
2023/10/21 10:20:52;;;;;;;4.38;2.17;;;;;;;21.13;45.76;99231.19;5022449;28;20036;-66
2023/10/21 10:23:19;;;;;;;3.88;2.60;;;;;;;21.11;45.80;99229.81;5022498;28;20105;-66
2023/10/21 10:25:49;;;;;;;4.40;2.40;;;;;;;21.08;45.92;99238.22;5024055;28;20037;-66
2023/10/21 10:28:25;;;;;;;3.15;2.30;;;;;;;21.09;46.10;99245.13;5025036;28;20079;-66
2023/10/21 10:30:52;;;;;;;4.80;2.40;;;;;;;21.08;46.27;99254.09;5023810;28;20040;-66
2023/10/21 10:33:18;;;;;;;3.85;2.42;;;;;;;21.09;46.13;99256.50;5022989;28;20037;-66
2023/10/21 10:35:54;;;;;;;3.60;2.13;;;;;;;21.06;46.23;99253.53;5028931;28;20459;-66
2023/10/21 10:38:28;;;;;;;4.38;2.08;;;;;;;20.98;46.57;99254.63;5024546;28;20108;-66
2023/10/21 10:41:15;;;;;;;3.15;2.28;;;;;;;20.96;46.74;99245.31;5027041;28;20045;-66
2023/10/21 10:43:44;;;;;;;4.10;2.30;;;;;;;21.05;46.46;99259.84;5025264;28;20048;-66
2023/10/21 10:46:15;;;;;;;2.85;2.30;;;;;;;21.03;46.47;99265.38;5026011;28;20116;-66
2023/10/21 10:48:42;;;;;;;4.57;2.13;;;;;;;21.03;46.63;99272.50;5023501;28;20491;-66
2023/10/21 10:51:14;;;;;;;3.72;2.53;;;;;;;21.00;46.62;99268.44;5020929;28;20441;-65
2023/10/21 10:53:40;;;;;;;2.88;2.28;;;;;;;20.93;46.81;99267.72;5024963;28;20094;-65
2023/10/21 10:56:14;;;;;;;2.88;2.00;;;;;;;20.98;47.07;99278.44;5022845;28;20639;-66
2023/10/21 10:58:45;;;;;;;2.47;2.28;;;;;;;20.97;46.91;99281.31;5020637;28;20044;-66
2023/10/21 11:01:25;;;;;;;2.00;1.80;;;;;;;21.02;47.01;99282.28;5018750;28;20053;-66
2023/10/21 11:04:02;;;;;;;3.67;2.33;;;;;;;21.08;46.58;99283.22;5017745;28;20615;-65
2023/10/21 11:06:35;;;;;;;3.70;2.03;;;;;;;21.18;46.37;99291.41;5020110;28;20049;-66
2023/10/21 11:09:04;;;;;;;5.18;2.28;;;;;;;21.10;46.38;99286.44;5022962;28;20024;-66
2023/10/21 11:11:46;;;;;;;2.63;1.98;;;;;;;21.25;46.14;99312.53;5018675;28;20045;-66
2023/10/21 11:14:16;;;;;;;3.42;1.80;;;;;;;21.20;46.30;99313.19;5018889;28;20083;-67
2023/10/21 11:16:43;;;;;;;2.53;1.88;;;;;;;21.10;46.36;99303.13;5023797;28;20079;-66
2023/10/21 11:19:09;;;;;;;2.53;2.08;;;;;;;21.20;46.42;99328.25;5015975;28;20120;-66
2023/10/21 11:21:39;;;;;;;2.25;1.92;;;;;;;21.20;45.99;99333.56;5025790;28;20071;-66
2023/10/21 11:24:10;;;;;;;2.92;2.10;;;;;;;21.18;46.43;99331.09;5014929;28;20133;-66
2023/10/21 11:26:36;;;;;;;1.88;1.63;;;;;;;21.18;46.42;99335.59;5023496;28;20042;-66
2023/10/21 11:29:05;;;;;;;2.35;1.88;;;;;;;21.11;46.61;99333.84;5018257;28;20034;-66
2023/10/21 11:31:33;;;;;;;1.83;1.70;;;;;;;21.11;46.46;99330.41;5021605;28;20147;-65
2023/10/21 11:34:11;;;;;;;1.90;1.80;;;;;;;21.10;46.52;99337.53;5023707;28;21043;-66